Terminal Aerodrome Forecast
Issued by NWS Caribou, ME

Home | Current Version | Previous Version | Text Only | Print | Product List | Glossary On
Versions: 1 2 3 4 5 6 7 8 9 10 11 12 13
000
FTUS41 KCAR 060524
TAFBGR
TAF
KBGR 060524Z 0606/0706 30004KT P6SM SCT100
     FM061500 30010KT P6SM FEW250
     FM061800 29012G24KT P6SM FEW200
     FM062300 27008KT P6SM SCT250=

USA.gov is the U.S. government's official web portal to all federal, state and local government web resources and services.